Time;durP1;ratioP1;P1;durP2;ratioP2;P2;SDS_P1;SDS_P2;PMS_P1;PMS_P2;Temp;Humidity;BMP_temperature;BMP_pressure;BME280_temperature;BME280_humidity;BME280_pressure;Samples;Min_cycle;Max_cycle;Signal;HPM_P1;HPM_P2
2021/10/30 00:02:04;;;;;;;1.37;1.00;;;10.40;99.90;;;;;;5134897;28;20214;-86
2021/10/30 00:04:35;;;;;;;1.50;1.10;;;10.20;99.90;;;;;;5137709;27;20206;-86
2021/10/30 00:07:07;;;;;;;2.30;1.23;;;10.20;99.90;;;;;;5137800;28;20212;-87
2021/10/30 00:09:41;;;;;;;2.50;1.10;;;10.20;99.90;;;;;;5139692;27;20253;-86
2021/10/30 00:12:15;;;;;;;4.97;1.27;;;10.10;99.90;;;;;;5138524;28;20281;-89
2021/10/30 00:14:48;;;;;;;3.50;1.23;;;10.10;99.90;;;;;;5134962;28;20211;-87
2021/10/30 00:17:19;;;;;;;3.83;1.40;;;10.00;99.90;;;;;;5128473;28;20202;-88
2021/10/30 00:19:51;;;;;;;2.23;1.40;;;10.00;99.90;;;;;;5123650;28;20218;-89
2021/10/30 00:22:23;;;;;;;3.97;1.67;;;10.00;99.90;;;;;;5124664;28;20232;-88
2021/10/30 00:24:55;;;;;;;3.63;1.77;;;9.90;99.90;;;;;;5125485;28;20269;-91
2021/10/30 00:27:30;;;;;;;4.90;1.43;;;9.90;99.90;;;;;;5136573;28;20210;-87
2021/10/30 00:30:06;;;;;;;4.57;1.40;;;9.90;99.90;;;;;;5463406;22;20267;-89
2021/10/30 00:32:37;;;;;;;4.77;1.67;;;9.80;99.90;;;;;;5049157;28;20215;-88
2021/10/30 00:35:09;;;;;;;3.50;1.70;;;9.80;99.90;;;;;;5057752;28;20180;-89
2021/10/30 00:37:42;;;;;;;2.90;1.73;;;9.70;99.90;;;;;;5039178;28;20251;-88
2021/10/30 00:40:21;;;;;;;2.10;1.20;;;9.70;99.90;;;;;;5056390;28;20192;-87
2021/10/30 00:42:55;;;;;;;3.50;1.70;;;9.60;99.90;;;;;;5052476;28;20219;-88
2021/10/30 01:07:22;;;;;;;5.97;2.47;;;8.60;99.90;;;;;;4686487;28;10001598;-88
2021/10/30 01:12:25;;;;;;;5.20;2.00;;;8.40;99.90;;;;;;5043920;28;20234;-89
2021/10/30 01:14:57;;;;;;;5.67;1.63;;;8.30;99.90;;;;;;5039322;28;20224;-88
2021/10/30 01:17:29;;;;;;;3.37;1.50;;;8.30;99.90;;;;;;5031363;28;20232;-90
2021/10/30 01:20:02;;;;;;;3.70;1.77;;;8.20;99.90;;;;;;5049837;28;20253;-88
2021/10/30 01:22:36;;;;;;;3.57;1.57;;;8.10;99.90;;;;;;5033638;28;20246;-87
2021/10/30 01:25:09;;;;;;;3.83;1.80;;;8.00;99.90;;;;;;5031470;28;20189;-89
2021/10/30 01:27:48;;;;;;;3.63;1.90;;;7.90;99.90;;;;;;5023595;28;20220;-89
2021/10/30 01:33:10;;;;;;;3.87;1.80;;;7.70;99.90;;;;;;5028599;28;20205;-89
2021/10/30 01:35:54;;;;;;;3.03;2.00;;;7.70;99.90;;;;;;5045422;28;20195;-90
2021/10/30 01:38:32;;;;;;;2.57;1.87;;;7.60;99.90;;;;;;5020950;28;20205;-87
2021/10/30 01:41:03;;;;;;;3.43;2.37;;;7.50;99.90;;;;;;5033443;28;20216;-88
2021/10/30 01:43:38;;;;;;;3.80;2.17;;;7.50;99.90;;;;;;5041631;28;20254;-87
2021/10/30 01:48:56;;;;;;;4.53;1.93;;;7.40;99.90;;;;;;5031531;28;20211;-87
2021/10/30 01:51:41;;;;;;;5.10;1.90;;;7.40;99.90;;;;;;5031335;28;20216;-86
2021/10/30 01:54:15;;;;;;;3.07;1.47;;;7.40;99.90;;;;;;5030296;28;20208;-88
2021/10/30 01:56:49;;;;;;;3.67;1.63;;;7.40;99.90;;;;;;5049188;28;20215;-88
2021/10/30 01:59:21;;;;;;;7.97;1.90;;;7.30;99.90;;;;;;5039112;28;20208;-87
2021/10/30 02:01:56;;;;;;;2.37;1.50;;;7.30;99.90;;;;;;5030601;28;20214;-87
2021/10/30 02:04:31;;;;;;;2.83;1.67;;;7.30;99.90;;;;;;5038725;28;20325;-86
2021/10/30 02:07:06;;;;;;;4.40;1.80;;;7.20;99.90;;;;;;5029028;28;20205;-88
2021/10/30 02:09:38;;;;;;;5.67;1.83;;;7.10;99.90;;;;;;5027657;28;20714;-87
2021/10/30 02:15:04;;;;;;;2.80;1.90;;;7.00;99.90;;;;;;5055475;28;20233;-90
2021/10/30 02:17:37;;;;;;;4.80;2.23;;;6.90;99.90;;;;;;5035476;28;20193;-87
2021/10/30 02:20:11;;;;;;;10.33;2.30;;;6.90;99.90;;;;;;5032166;28;20209;-87
2021/10/30 02:22:55;;;;;;;5.00;2.20;;;6.80;99.90;;;;;;5054563;28;20240;-88
2021/10/30 02:25:30;;;;;;;3.40;2.07;;;6.70;99.90;;;;;;5038508;28;20208;-87
2021/10/30 02:28:03;;;;;;;5.63;2.33;;;6.70;99.90;;;;;;5032572;28;20292;-87
2021/10/30 02:33:21;;;;;;;4.57;2.83;;;6.60;99.90;;;;;;5766361;22;20230;-87
2021/10/30 02:35:55;;;;;;;5.30;3.17;;;6.60;99.90;;;;;;5062605;28;20213;-87
2021/10/30 02:38:37;;;;;;;6.27;3.10;;;6.50;99.90;;;;;;5055537;28;20231;-89
2021/10/30 02:59:56;;;;;;;4.63;2.80;;;6.30;99.90;;;;;;5632584;22;20239;-84
2021/10/30 03:02:28;;;;;;;4.43;2.93;;;6.30;99.90;;;;;;5075719;28;20226;-88
2021/10/30 03:05:03;;;;;;;6.60;3.73;;;6.30;99.90;;;;;;5056163;28;20688;-89
2021/10/30 03:07:35;;;;;;;9.47;4.03;;;6.30;99.90;;;;;;5068800;28;20200;-87
2021/10/30 03:10:09;;;;;;;6.40;3.93;;;6.30;99.90;;;;;;5075584;28;20209;-87
2021/10/30 03:15:29;;;;;;;11.73;6.57;;;6.20;99.90;;;;;;5073188;28;20204;-88
2021/10/30 03:18:03;;;;;;;11.33;7.23;;;6.20;99.90;;;;;;5070508;28;20208;-87
2021/10/30 03:20:38;;;;;;;10.90;6.73;;;6.10;99.90;;;;;;5069858;28;20212;-89
2021/10/30 03:23:14;;;;;;;9.43;6.60;;;6.10;99.90;;;;;;5071103;28;20211;-88
2021/10/30 03:25:45;;;;;;;12.73;6.40;;;6.00;99.90;;;;;;5074861;28;20207;-87
2021/10/30 03:28:17;;;;;;;7.87;5.83;;;5.90;99.90;;;;;;5076809;28;20212;-87
2021/10/30 03:30:51;;;;;;;6.97;5.67;;;5.90;99.90;;;;;;5078933;28;20197;-87
2021/10/30 03:38:41;;;;;;;4.40;3.47;;;5.90;99.90;;;;;;5210959;22;20236;-86
2021/10/30 03:41:19;;;;;;;5.97;3.83;;;5.90;99.90;;;;;;5055420;28;20228;-88
2021/10/30 03:43:54;;;;;;;4.77;3.20;;;5.80;99.90;;;;;;5496716;23;20222;-88
2021/10/30 03:46:30;;;;;;;4.83;2.97;;;5.80;99.90;;;;;;5035007;28;20198;-88
2021/10/30 03:49:07;;;;;;;4.63;3.37;;;5.80;99.90;;;;;;5036744;28;20208;-89
2021/10/30 03:51:53;;;;;;;4.80;2.80;;;5.70;99.90;;;;;;5037025;28;20213;-88
2021/10/30 03:54:25;;;;;;;5.83;3.23;;;5.70;99.90;;;;;;5033536;28;20209;-88
2021/10/30 03:57:00;;;;;;;8.93;3.17;;;5.60;99.90;;;;;;5032236;28;20224;-88
2021/10/30 03:59:32;;;;;;;5.20;2.63;;;5.60;99.90;;;;;;5033964;28;20233;-88
2021/10/30 04:02:08;;;;;;;4.00;2.47;;;5.60;99.90;;;;;;5033272;28;20229;-88
2021/10/30 04:04:40;;;;;;;6.83;2.63;;;5.60;99.90;;;;;;5030306;28;20229;-88
2021/10/30 04:07:18;;;;;;;5.30;2.63;;;5.50;99.90;;;;;;5025817;28;20194;-85
2021/10/30 04:09:54;;;;;;;6.40;2.90;;;5.60;99.90;;;;;;5036149;28;20202;-89
2021/10/30 04:12:29;;;;;;;6.13;2.40;;;5.60;99.90;;;;;;5031602;28;20214;-88
2021/10/30 04:15:00;;;;;;;4.63;2.80;;;5.60;99.90;;;;;;5020850;28;20218;-87
2021/10/30 04:17:35;;;;;;;4.83;2.80;;;5.60;99.90;;;;;;5020169;28;20205;-87
2021/10/30 04:20:07;;;;;;;7.27;3.07;;;5.50;99.90;;;;;;5021534;28;20228;-86
2021/10/30 04:22:39;;;;;;;5.77;2.87;;;5.50;99.90;;;;;;5023859;28;20236;-87
2021/10/30 04:25:12;;;;;;;6.70;3.70;;;5.50;99.90;;;;;;5019274;28;20237;-87
2021/10/30 04:27:43;;;;;;;5.33;2.50;;;5.50;99.90;;;;;;5022882;28;20209;-87
2021/10/30 04:30:14;;;;;;;5.87;3.10;;;5.50;99.90;;;;;;5021655;28;20241;-87
2021/10/30 04:32:49;;;;;;;5.90;2.83;;;5.50;99.90;;;;;;5026972;28;20204;-87
2021/10/30 04:35:22;;;;;;;6.57;2.90;;;5.50;99.90;;;;;;5030380;28;20243;-88
2021/10/30 04:37:55;;;;;;;4.97;2.30;;;5.50;99.90;;;;;;5021633;28;20582;-88
2021/10/30 04:40:26;;;;;;;6.90;2.53;;;5.50;99.90;;;;;;5026819;28;20210;-87
2021/10/30 04:42:58;;;;;;;6.53;2.47;;;5.40;99.90;;;;;;5022289;28;20213;-87
2021/10/30 04:45:29;;;;;;;4.57;2.17;;;5.40;99.90;;;;;;5033746;28;20243;-87
2021/10/30 04:48:04;;;;;;;5.67;2.17;;;5.40;99.90;;;;;;5034074;28;20276;-89
2021/10/30 04:50:42;;;;;;;7.47;2.63;;;5.40;99.90;;;;;;5028876;28;20279;-88
2021/10/30 04:53:14;;;;;;;4.27;2.17;;;5.40;99.90;;;;;;5031904;28;20209;-88
2021/10/30 04:55:46;;;;;;;3.43;2.03;;;5.40;99.90;;;;;;5034535;28;20216;-88
2021/10/30 04:58:17;;;;;;;4.53;1.93;;;5.40;99.90;;;;;;5032041;28;20257;-86
2021/10/30 05:00:49;;;;;;;4.60;2.00;;;5.30;99.90;;;;;;5036890;28;20231;-87
2021/10/30 05:03:23;;;;;;;5.67;2.20;;;5.30;99.90;;;;;;5036655;28;20197;-85
2021/10/30 05:05:57;;;;;;;3.77;2.13;;;5.30;99.90;;;;;;5027953;28;20283;-88
2021/10/30 05:08:30;;;;;;;4.23;2.13;;;5.30;99.90;;;;;;5033122;28;20218;-88
2021/10/30 05:11:09;;;;;;;2.70;1.87;;;5.30;99.90;;;;;;5035291;28;20221;-89
2021/10/30 05:13:43;;;;;;;4.57;2.00;;;5.20;99.90;;;;;;5024302;28;20229;-87
2021/10/30 05:16:15;;;;;;;3.33;2.30;;;5.20;99.90;;;;;;5023306;28;20220;-88
2021/10/30 05:18:51;;;;;;;4.60;2.23;;;5.20;99.90;;;;;;5028377;28;20197;-87
2021/10/30 05:21:29;;;;;;;3.87;2.03;;;5.20;99.90;;;;;;5028523;28;20253;-87
2021/10/30 05:24:02;;;;;;;7.20;2.63;;;5.10;99.90;;;;;;5019368;28;20206;-84
2021/10/30 05:26:38;;;;;;;4.97;2.83;;;5.10;99.90;;;;;;5015785;28;20805;-86
2021/10/30 05:29:12;;;;;;;5.27;3.03;;;5.20;99.90;;;;;;5018037;28;20216;-87
2021/10/30 05:31:48;;;;;;;5.93;2.60;;;5.20;99.90;;;;;;5000514;28;20241;-85
2021/10/30 05:34:20;;;;;;;6.93;3.13;;;5.20;99.90;;;;;;5005158;28;20471;-85
2021/10/30 05:36:53;;;;;;;5.27;2.70;;;5.10;99.90;;;;;;5008081;28;20218;-86
2021/10/30 05:39:28;;;;;;;3.83;2.23;;;5.10;99.90;;;;;;5019768;28;20205;-86
2021/10/30 05:42:00;;;;;;;4.53;2.43;;;5.10;99.90;;;;;;5022676;28;20579;-85
2021/10/30 05:44:39;;;;;;;5.03;2.67;;;5.10;99.90;;;;;;5018105;28;20216;-84
2021/10/30 05:47:11;;;;;;;9.00;2.70;;;5.00;99.90;;;;;;5019038;28;20403;-86
2021/10/30 05:49:47;;;;;;;7.30;2.60;;;5.00;99.90;;;;;;5018711;28;20209;-86
2021/10/30 05:52:18;;;;;;;6.10;2.87;;;4.90;99.90;;;;;;5019545;28;20194;-85
2021/10/30 05:54:49;;;;;;;4.30;2.57;;;4.90;99.90;;;;;;5023099;28;20264;-86
2021/10/30 05:57:20;;;;;;;5.33;3.57;;;4.80;99.90;;;;;;5032256;28;20662;-85
2021/10/30 05:59:51;;;;;;;4.30;3.00;;;4.80;99.90;;;;;;5020151;28;20229;-86
2021/10/30 06:02:24;;;;;;;4.60;3.17;;;4.90;99.90;;;;;;5019741;28;20229;-84
2021/10/30 06:04:58;;;;;;;5.30;3.43;;;4.70;99.90;;;;;;5023365;28;20225;-88
2021/10/30 06:07:29;;;;;;;5.77;3.77;;;4.70;99.90;;;;;;5026204;28;20229;-86
2021/10/30 06:10:00;;;;;;;5.60;3.77;;;4.70;99.90;;;;;;5021009;28;20549;-86
2021/10/30 06:12:33;;;;;;;4.80;3.20;;;4.60;99.90;;;;;;4999931;28;20202;-85
2021/10/30 06:15:06;;;;;;;5.63;3.90;;;4.60;99.90;;;;;;5011001;28;20206;-85
2021/10/30 06:17:42;;;;;;;6.13;3.50;;;4.60;99.90;;;;;;5019629;28;20288;-85
2021/10/30 06:20:17;;;;;;;6.03;4.27;;;4.60;99.90;;;;;;5018580;28;20228;-84
2021/10/30 06:22:48;;;;;;;4.77;3.60;;;4.50;99.90;;;;;;5018094;28;20208;-86
2021/10/30 06:25:22;;;;;;;7.00;3.83;;;4.50;99.90;;;;;;5017400;28;20279;-86
2021/10/30 06:27:53;;;;;;;4.60;3.20;;;4.50;99.90;;;;;;5017353;28;20209;-86
2021/10/30 06:30:25;;;;;;;5.13;3.57;;;4.50;99.90;;;;;;5017099;28;20632;-85
2021/10/30 06:32:57;;;;;;;8.77;3.90;;;4.50;99.90;;;;;;5019270;28;20206;-85
2021/10/30 06:35:30;;;;;;;4.73;2.90;;;4.60;99.90;;;;;;5020371;28;20209;-86
2021/10/30 06:38:01;;;;;;;5.47;3.67;;;4.50;99.90;;;;;;5017321;28;20225;-84
2021/10/30 06:40:33;;;;;;;6.70;3.50;;;4.50;99.90;;;;;;5017380;28;20201;-86
2021/10/30 06:43:04;;;;;;;8.03;3.70;;;4.50;99.90;;;;;;5019039;28;20202;-86
2021/10/30 06:45:38;;;;;;;6.40;3.40;;;4.50;99.90;;;;;;5017279;28;20241;-85
2021/10/30 06:48:12;;;;;;;5.60;3.83;;;4.40;99.90;;;;;;5018581;28;20205;-86
2021/10/30 06:50:48;;;;;;;5.07;3.23;;;4.50;99.90;;;;;;5018953;28;20364;-84
2021/10/30 06:53:20;;;;;;;6.20;3.37;;;4.50;99.90;;;;;;5018039;28;20225;-85
2021/10/30 06:55:58;;;;;;;5.13;2.53;;;4.50;99.90;;;;;;5017520;28;20205;-85
2021/10/30 06:58:33;;;;;;;5.50;2.30;;;4.40;99.90;;;;;;5025467;28;20273;-86
2021/10/30 07:01:07;;;;;;;3.93;2.40;;;4.50;99.90;;;;;;5032708;28;20213;-85
2021/10/30 07:03:39;;;;;;;2.13;1.93;;;4.50;99.90;;;;;;5030573;28;20221;-86
2021/10/30 07:06:18;;;;;;;4.40;2.10;;;4.50;99.90;;;;;;5033570;28;20291;-86
2021/10/30 07:08:56;;;;;;;3.80;2.17;;;4.50;99.90;;;;;;5050373;28;20209;-86
2021/10/30 07:11:36;;;;;;;4.00;2.00;;;4.50;99.90;;;;;;5033896;28;20199;-86
2021/10/30 07:14:07;;;;;;;3.90;2.50;;;4.50;99.90;;;;;;5033440;28;20277;-85
2021/10/30 07:16:38;;;;;;;5.83;2.20;;;4.50;99.90;;;;;;5024143;28;20762;-84
2021/10/30 07:19:09;;;;;;;6.90;2.40;;;4.50;99.90;;;;;;5028009;28;20197;-84
2021/10/30 07:21:41;;;;;;;2.90;2.50;;;4.50;99.90;;;;;;5027085;28;20248;-85
2021/10/30 07:24:12;;;;;;;3.43;2.30;;;4.50;99.90;;;;;;5024421;28;20737;-85
2021/10/30 07:26:43;;;;;;;3.87;2.70;;;4.40;99.90;;;;;;5019777;28;20630;-84
2021/10/30 07:29:17;;;;;;;4.07;3.07;;;4.40;99.90;;;;;;5017909;28;20300;-85
2021/10/30 07:31:48;;;;;;;5.43;3.27;;;4.30;99.90;;;;;;5018732;28;20202;-86
2021/10/30 07:34:19;;;;;;;6.03;3.10;;;4.30;99.90;;;;;;5018253;28;20682;-85
2021/10/30 07:36:52;;;;;;;4.10;2.80;;;4.30;99.90;;;;;;5018493;28;20670;-85
2021/10/30 07:39:23;;;;;;;5.37;2.87;;;4.20;99.90;;;;;;5018753;28;20523;-84
2021/10/30 07:41:54;;;;;;;5.20;2.67;;;4.30;99.90;;;;;;5019110;28;20515;-84
2021/10/30 07:44:24;;;;;;;5.23;3.10;;;4.30;99.90;;;;;;5018055;28;20210;-84
2021/10/30 07:46:57;;;;;;;4.97;3.00;;;4.20;99.90;;;;;;5018331;28;20245;-85
2021/10/30 07:49:27;;;;;;;4.27;2.83;;;4.20;99.90;;;;;;5036560;28;20274;-85
2021/10/30 07:52:00;;;;;;;5.63;3.20;;;4.10;99.90;;;;;;5039017;28;20209;-85
2021/10/30 07:54:31;;;;;;;5.17;3.20;;;4.10;99.90;;;;;;5037418;28;20624;-84
2021/10/30 07:57:02;;;;;;;6.33;3.40;;;4.10;99.90;;;;;;5038387;28;20209;-84
2021/10/30 07:59:33;;;;;;;5.47;3.30;;;4.00;99.90;;;;;;5067860;23;20271;-85
2021/10/30 08:02:04;;;;;;;4.43;3.07;;;3.90;99.90;;;;;;5057535;28;20211;-85
2021/10/30 08:04:36;;;;;;;5.07;3.60;;;3.90;99.90;;;;;;5057595;28;20204;-85
2021/10/30 08:07:09;;;;;;;3.87;3.00;;;3.90;99.90;;;;;;5050916;28;20227;-85
2021/10/30 08:09:41;;;;;;;6.67;3.90;;;3.80;99.90;;;;;;5057780;28;20204;-85
2021/10/30 08:12:12;;;;;;;7.20;3.47;;;3.70;99.90;;;;;;5057375;28;20243;-85
2021/10/30 08:14:43;;;;;;;5.03;3.57;;;3.70;99.90;;;;;;5057889;28;20227;-85
2021/10/30 08:17:14;;;;;;;3.97;3.17;;;3.70;99.90;;;;;;5056241;28;20672;-85
2021/10/30 08:19:46;;;;;;;5.27;3.33;;;3.60;99.90;;;;;;5057073;28;20260;-85
2021/10/30 08:22:18;;;;;;;5.93;3.43;;;3.70;99.90;;;;;;5057305;28;20274;-85
2021/10/30 08:24:49;;;;;;;6.23;3.73;;;3.60;99.90;;;;;;5057832;28;20211;-85
2021/10/30 08:27:20;;;;;;;5.23;3.57;;;3.60;99.90;;;;;;5056473;28;20254;-85
2021/10/30 08:29:51;;;;;;;6.37;3.23;;;3.60;99.90;;;;;;5057522;28;20282;-84
2021/10/30 08:32:22;;;;;;;7.47;4.40;;;3.60;99.90;;;;;;5057707;28;20609;-84
2021/10/30 08:34:54;;;;;;;6.10;3.80;;;3.60;99.90;;;;;;5058230;28;20223;-85
2021/10/30 08:37:26;;;;;;;5.77;3.37;;;3.50;99.90;;;;;;5057355;28;20620;-85
2021/10/30 08:39:58;;;;;;;4.20;3.17;;;3.50;99.90;;;;;;5057094;28;20247;-84
2021/10/30 08:42:30;;;;;;;6.47;2.97;;;3.50;99.90;;;;;;5057557;28;20258;-84
2021/10/30 08:45:02;;;;;;;4.77;3.53;;;3.40;99.90;;;;;;5056438;28;20608;-84
2021/10/30 08:47:34;;;;;;;4.73;2.87;;;3.40;99.90;;;;;;5057390;28;20626;-85
2021/10/30 08:50:05;;;;;;;4.90;3.10;;;3.40;99.90;;;;;;5058617;28;20232;-85
2021/10/30 08:52:39;;;;;;;7.37;3.10;;;3.40;99.90;;;;;;5058366;28;20201;-84
2021/10/30 08:55:11;;;;;;;5.27;3.13;;;3.40;99.90;;;;;;5073864;28;20215;-86
2021/10/30 08:57:42;;;;;;;5.73;3.17;;;3.40;99.90;;;;;;5074215;28;20226;-85
2021/10/30 09:00:25;;;;;;;4.23;3.10;;;3.40;99.90;;;;;;5075342;28;20220;-85
2021/10/30 09:03:00;;;;;;;4.50;2.87;;;3.40;99.90;;;;;;5060869;28;20208;-85
2021/10/30 09:05:33;;;;;;;8.33;3.77;;;3.40;99.90;;;;;;5058538;28;20219;-85
2021/10/30 09:08:08;;;;;;;4.37;3.03;;;3.40;99.90;;;;;;5059271;28;20228;-84
2021/10/30 09:10:40;;;;;;;5.10;2.93;;;3.40;99.90;;;;;;5058383;28;20261;-85
2021/10/30 09:13:13;;;;;;;5.50;2.70;;;3.40;99.90;;;;;;5057340;28;20219;-84
2021/10/30 09:15:47;;;;;;;6.30;3.30;;;3.30;99.90;;;;;;5055610;28;20212;-85
2021/10/30 09:18:24;;;;;;;5.23;3.40;;;3.30;99.90;;;;;;5056532;28;20235;-85
2021/10/30 09:21:14;;;;;;;4.33;3.43;;;3.20;99.90;;;;;;5056466;28;20319;-85
2021/10/30 09:23:49;;;;;;;8.73;3.67;;;3.10;99.90;;;;;;5055739;28;20204;-85
2021/10/30 09:26:22;;;;;;;5.73;3.13;;;3.10;99.90;;;;;;5054707;28;20257;-84
2021/10/30 09:28:57;;;;;;;6.60;3.27;;;3.10;99.90;;;;;;5057006;28;20208;-85
2021/10/30 09:31:29;;;;;;;5.83;3.67;;;3.10;99.90;;;;;;5057401;28;20279;-84
2021/10/30 09:34:02;;;;;;;7.53;3.23;;;3.00;99.90;;;;;;5063693;28;20195;-86
2021/10/30 09:36:35;;;;;;;3.93;3.40;;;3.00;99.90;;;;;;5074830;28;20200;-83
2021/10/30 09:39:09;;;;;;;4.60;3.37;;;3.10;99.90;;;;;;5074952;28;20208;-86
2021/10/30 09:41:42;;;;;;;8.17;3.50;;;3.00;99.90;;;;;;5062276;28;20220;-85
2021/10/30 09:44:19;;;;;;;5.30;3.13;;;3.00;99.90;;;;;;5044676;28;20236;-85
2021/10/30 09:46:52;;;;;;;3.80;3.20;;;3.00;99.90;;;;;;5038944;28;20618;-84
2021/10/30 09:49:25;;;;;;;4.43;3.07;;;3.00;99.90;;;;;;5037607;28;20219;-86
2021/10/30 09:51:57;;;;;;;5.73;3.10;;;3.00;99.90;;;;;;5036400;28;20205;-86
2021/10/30 09:54:36;;;;;;;5.13;3.03;;;3.00;99.90;;;;;;5035792;28;20236;-85
2021/10/30 09:57:10;;;;;;;6.53;3.57;;;3.00;99.90;;;;;;5035261;28;20240;-86
2021/10/30 09:59:42;;;;;;;3.37;2.77;;;3.00;99.90;;;;;;5035459;28;20209;-85
2021/10/30 10:02:14;;;;;;;6.37;3.37;;;2.90;99.90;;;;;;5036640;28;20350;-85
2021/10/30 10:04:48;;;;;;;4.00;3.20;;;2.90;99.90;;;;;;5036172;28;20224;-87
2021/10/30 10:07:22;;;;;;;4.17;3.13;;;3.00;99.90;;;;;;5034068;28;20252;-85
2021/10/30 10:09:54;;;;;;;4.77;3.20;;;3.00;99.90;;;;;;5035744;28;20201;-85
2021/10/30 10:12:26;;;;;;;3.90;2.80;;;3.00;99.90;;;;;;5035701;28;20721;-86
2021/10/30 10:14:57;;;;;;;5.37;2.60;;;3.10;99.90;;;;;;5037505;28;20320;-85
2021/10/30 10:17:29;;;;;;;4.60;2.50;;;3.20;99.90;;;;;;5036083;28;20270;-84
2021/10/30 10:20:06;;;;;;;4.43;2.70;;;3.20;99.90;;;;;;5045120;28;20204;-85
2021/10/30 10:22:37;;;;;;;4.53;2.50;;;3.30;99.90;;;;;;5055621;28;20266;-85
2021/10/30 10:25:31;;;;;;;3.40;2.77;;;3.30;99.90;;;;;;5054774;28;20279;-85
2021/10/30 10:28:26;;;;;;;3.70;2.50;;;3.30;99.90;;;;;;5055893;28;20272;-85
2021/10/30 10:31:00;;;;;;;3.10;2.30;;;3.30;99.90;;;;;;5055644;28;20204;-84
2021/10/30 10:33:33;;;;;;;6.27;2.00;;;3.40;99.90;;;;;;5055400;28;20211;-85
2021/10/30 10:36:25;;;;;;;3.50;2.07;;;3.30;99.90;;;;;;5058932;28;20240;-83
2021/10/30 10:39:17;;;;;;;2.60;1.97;;;3.40;99.90;;;;;;5059093;28;20208;-84
2021/10/30 10:41:55;;;;;;;4.20;2.13;;;3.40;99.90;;;;;;5059716;28;20200;-84
2021/10/30 10:45:11;;;;;;;3.43;2.20;;;3.30;99.90;;;;;;5059530;28;20219;-84
2021/10/30 10:50:43;;;;;;;3.20;1.73;;;3.30;99.90;;;;;;5058488;28;20231;-84
2021/10/30 10:53:25;;;;;;;5.97;2.53;;;3.30;99.90;;;;;;5059868;28;20227;-84
2021/10/30 10:56:26;;;;;;;2.13;1.93;;;3.30;99.90;;;;;;5058127;28;20290;-84
2021/10/30 10:59:19;;;;;;;5.23;1.60;;;3.30;99.90;;;;;;5061597;28;20223;-85
2021/10/30 11:02:19;;;;;;;3.23;1.73;;;3.30;99.90;;;;;;5058763;28;20208;-84
2021/10/30 11:05:26;;;;;;;4.07;2.07;;;3.30;99.90;;;;;;5057531;28;20277;-85
2021/10/30 11:08:32;;;;;;;2.50;1.67;;;3.30;99.90;;;;;;5059007;28;20258;-84
2021/10/30 11:11:19;;;;;;;4.07;2.33;;;3.30;99.90;;;;;;5041122;28;20208;-84
2021/10/30 11:13:57;;;;;;;2.17;1.70;;;3.30;99.90;;;;;;5038798;28;20200;-86
2021/10/30 11:16:31;;;;;;;2.43;2.00;;;3.20;99.90;;;;;;5037461;28;20631;-85
2021/10/30 11:19:08;;;;;;;3.47;1.80;;;3.20;99.90;;;;;;5038396;28;20685;-85
2021/10/30 11:21:44;;;;;;;2.43;1.73;;;3.20;99.90;;;;;;5039110;28;20215;-82
2021/10/30 11:24:27;;;;;;;3.50;1.83;;;3.10;99.90;;;;;;5038982;28;20236;-85
2021/10/30 11:27:01;;;;;;;3.10;2.37;;;3.10;99.90;;;;;;5037971;28;20235;-85
2021/10/30 11:29:33;;;;;;;2.60;2.03;;;3.10;99.90;;;;;;5056409;28;20298;-85
2021/10/30 11:32:07;;;;;;;2.00;1.80;;;3.10;99.90;;;;;;5058143;28;20200;-84
2021/10/30 11:34:38;;;;;;;4.50;2.10;;;3.10;99.90;;;;;;5058165;28;20227;-85
2021/10/30 11:37:09;;;;;;;2.43;2.23;;;3.10;99.90;;;;;;5057719;28;20251;-84
2021/10/30 11:39:40;;;;;;;3.13;2.10;;;3.00;99.90;;;;;;5058320;28;20243;-84
2021/10/30 11:42:12;;;;;;;5.43;2.20;;;3.00;99.90;;;;;;5058715;28;20234;-85
2021/10/30 11:44:53;;;;;;;3.90;2.30;;;3.00;99.90;;;;;;5058219;28;20210;-85
2021/10/30 11:47:28;;;;;;;3.43;2.70;;;2.90;99.90;;;;;;5057887;28;20652;-85
2021/10/30 11:50:08;;;;;;;3.13;2.80;;;2.90;99.90;;;;;;5061144;28;20218;-85
2021/10/30 11:52:50;;;;;;;5.20;2.80;;;2.90;99.90;;;;;;5061393;28;20216;-86
2021/10/30 11:55:24;;;;;;;3.77;3.30;;;2.90;99.90;;;;;;5058796;28;20232;-85
2021/10/30 11:58:09;;;;;;;9.97;2.80;;;2.80;99.90;;;;;;5058488;28;20267;-86
2021/10/30 12:00:45;;;;;;;4.07;2.77;;;2.80;99.90;;;;;;5058107;28;20244;-84
2021/10/30 12:03:18;;;;;;;13.60;3.23;;;2.70;99.90;;;;;;5056993;28;20254;-85
2021/10/30 12:05:57;;;;;;;4.73;2.73;;;2.70;99.90;;;;;;5055944;28;20243;-85
2021/10/30 12:08:28;;;;;;;3.30;2.50;;;2.70;99.90;;;;;;5058223;28;20668;-84
2021/10/30 12:10:59;;;;;;;3.00;2.40;;;2.60;99.90;;;;;;5059203;28;20205;-85
2021/10/30 12:13:32;;;;;;;3.67;2.63;;;2.60;99.90;;;;;;5058392;28;20563;-86
2021/10/30 12:16:03;;;;;;;3.60;2.40;;;2.60;99.90;;;;;;5057621;28;20240;-86
2021/10/30 12:18:36;;;;;;;3.30;2.57;;;2.50;99.90;;;;;;5059963;28;20235;-85
2021/10/30 12:21:10;;;;;;;3.57;2.90;;;2.50;99.90;;;;;;5058414;28;20239;-86
2021/10/30 12:24:00;;;;;;;3.63;2.80;;;2.40;99.90;;;;;;5058437;28;20203;-85
2021/10/30 12:26:32;;;;;;;3.20;2.90;;;2.40;99.90;;;;;;5057207;28;20240;-87
2021/10/30 12:29:15;;;;;;;4.57;3.03;;;2.40;99.90;;;;;;5058204;28;20291;-84
2021/10/30 12:32:01;;;;;;;3.63;3.10;;;2.30;99.90;;;;;;5057749;28;20225;-86
2021/10/30 12:34:35;;;;;;;7.03;3.50;;;2.30;99.90;;;;;;5057402;28;20235;-86
2021/10/30 12:37:07;;;;;;;3.63;2.73;;;2.30;99.90;;;;;;5056613;28;20212;-85
2021/10/30 12:39:39;;;;;;;3.33;3.03;;;2.30;99.90;;;;;;5057116;28;20259;-85
2021/10/30 12:42:12;;;;;;;4.57;3.03;;;2.40;99.90;;;;;;5056800;28;20207;-84
2021/10/30 12:44:43;;;;;;;4.77;3.00;;;2.30;99.90;;;;;;5057346;28;20216;-86
2021/10/30 12:47:16;;;;;;;3.37;2.97;;;2.30;99.90;;;;;;5056289;28;20212;-86
2021/10/30 12:49:58;;;;;;;4.07;2.77;;;2.30;99.90;;;;;;5057266;28;20211;-87
2021/10/30 12:52:43;;;;;;;3.03;2.73;;;2.30;99.90;;;;;;5057595;28;20227;-84
2021/10/30 12:55:16;;;;;;;2.90;2.30;;;2.30;99.90;;;;;;5057396;28;20211;-86
2021/10/30 12:57:58;;;;;;;2.53;1.97;;;2.30;99.90;;;;;;5051671;28;20246;-86
2021/10/30 13:00:39;;;;;;;2.40;2.20;;;2.30;99.90;;;;;;5057278;28;20263;-84
2021/10/30 13:03:14;;;;;;;19.23;2.77;;;2.30;99.90;;;;;;5062098;28;20273;-85
2021/10/30 13:05:48;;;;;;;26.20;2.63;;;2.30;99.90;;;;;;5057307;28;20203;-85
2021/10/30 13:08:20;;;;;;;49.57;3.83;;;2.30;99.90;;;;;;5057555;28;20203;-85
2021/10/30 13:10:51;;;;;;;18.90;2.33;;;2.20;99.90;;;;;;5056751;28;20255;-86
2021/10/30 13:13:22;;;;;;;30.93;3.37;;;2.20;99.90;;;;;;5056808;28;20649;-86
2021/10/30 13:15:54;;;;;;;7.70;2.40;;;2.20;99.90;;;;;;5057411;28;20270;-86
2021/10/30 13:18:25;;;;;;;31.13;3.73;;;2.20;99.90;;;;;;5058155;28;20244;-85
2021/10/30 13:20:57;;;;;;;16.87;3.00;;;2.30;99.90;;;;;;5056899;28;20326;-85
2021/10/30 13:23:30;;;;;;;21.73;3.07;;;2.20;99.90;;;;;;5056566;28;20211;-84
2021/10/30 13:26:02;;;;;;;5.83;2.50;;;2.20;99.90;;;;;;5056785;28;20226;-86
2021/10/30 13:28:33;;;;;;;11.37;3.00;;;2.20;99.90;;;;;;5056499;28;20580;-86
2021/10/30 13:31:04;;;;;;;14.13;3.27;;;2.20;99.90;;;;;;5056892;28;20638;-86
2021/10/30 13:33:35;;;;;;;8.37;2.53;;;2.30;99.90;;;;;;5045082;28;20246;-86
2021/10/30 13:36:08;;;;;;;10.33;3.20;;;2.30;99.90;;;;;;5034977;28;20244;-86
2021/10/30 13:38:39;;;;;;;10.37;2.83;;;2.20;99.90;;;;;;5051695;28;20540;-87
2021/10/30 13:41:12;;;;;;;26.93;3.10;;;2.20;99.90;;;;;;5047687;28;20223;-85
2021/10/30 13:43:44;;;;;;;7.57;2.60;;;2.20;99.90;;;;;;5036210;28;20212;-86
2021/10/30 13:46:17;;;;;;;3.07;2.73;;;2.10;99.90;;;;;;5038616;28;20248;-85
2021/10/30 13:48:49;;;;;;;3.43;2.80;;;2.10;99.90;;;;;;5039491;28;20211;-86
2021/10/30 13:51:22;;;;;;;2.57;2.37;;;2.10;99.90;;;;;;5038427;28;20235;-85
2021/10/30 13:53:54;;;;;;;4.70;2.97;;;2.10;99.90;;;;;;5041118;28;20203;-86
2021/10/30 13:56:26;;;;;;;5.13;2.90;;;2.10;99.90;;;;;;5038089;28;20200;-86
2021/10/30 13:58:57;;;;;;;4.23;2.50;;;2.10;99.90;;;;;;5051164;28;20259;-86
2021/10/30 14:01:35;;;;;;;2.47;2.27;;;2.10;99.90;;;;;;5060316;28;20200;-86
2021/10/30 14:04:08;;;;;;;3.10;2.50;;;2.00;99.90;;;;;;5060674;28;20668;-86
2021/10/30 14:06:43;;;;;;;2.57;2.17;;;2.00;99.90;;;;;;5060902;28;20254;-85
2021/10/30 14:09:14;;;;;;;3.97;2.37;;;2.00;99.90;;;;;;5065119;28;20210;-86
2021/10/30 14:11:44;;;;;;;2.60;2.13;;;2.00;99.90;;;;;;5058870;28;20242;-85
2021/10/30 14:14:15;;;;;;;4.10;2.53;;;2.00;99.90;;;;;;5063764;28;20610;-85
2021/10/30 14:16:47;;;;;;;2.50;2.27;;;2.00;99.90;;;;;;5056034;28;20558;-86
2021/10/30 14:19:18;;;;;;;3.67;2.60;;;2.00;99.90;;;;;;5056072;28;20227;-86
2021/10/30 14:21:52;;;;;;;3.23;2.17;;;2.00;99.90;;;;;;5056376;28;20208;-85
2021/10/30 14:24:23;;;;;;;3.13;2.10;;;2.00;99.90;;;;;;5055804;28;20233;-86
2021/10/30 14:26:57;;;;;;;2.27;2.07;;;2.00;99.90;;;;;;5055460;28;20241;-86
2021/10/30 14:29:27;;;;;;;3.20;2.20;;;1.90;99.90;;;;;;5055891;28;20258;-85
2021/10/30 14:32:00;;;;;;;4.30;2.50;;;1.90;99.90;;;;;;5055826;28;20259;-86
2021/10/30 14:34:31;;;;;;;2.30;2.03;;;1.90;99.90;;;;;;5056999;28;20204;-86
2021/10/30 14:37:04;;;;;;;2.40;2.20;;;1.90;99.90;;;;;;5055063;28;20208;-86
2021/10/30 14:39:35;;;;;;;2.30;2.10;;;1.90;99.90;;;;;;5056528;28;20277;-86